sensor_id;sensor_type;location;lat;lon;timestamp;P1;durP1;ratioP1;P2;durP2;ratioP2
14396;SDS011;50653;47.810;13.022;2023-03-23T00:01:01;3.53;;;3.23;;
14396;SDS011;50653;47.810;13.022;2023-03-23T00:03:29;5.07;;;2.70;;
14396;SDS011;50653;47.810;13.022;2023-03-23T00:05:57;2.17;;;2.07;;
14396;SDS011;50653;47.810;13.022;2023-03-23T00:08:29;3.27;;;2.27;;
14396;SDS011;50653;47.810;13.022;2023-03-23T00:10:57;2.73;;;2.20;;
14396;SDS011;50653;47.810;13.022;2023-03-23T00:13:24;3.43;;;2.13;;
14396;SDS011;50653;47.810;13.022;2023-03-23T00:15:50;3.57;;;2.10;;
14396;SDS011;50653;47.810;13.022;2023-03-23T00:18:19;2.33;;;2.13;;
14396;SDS011;50653;47.810;13.022;2023-03-23T00:20:49;2.90;;;2.53;;
14396;SDS011;50653;47.810;13.022;2023-03-23T00:23:21;3.63;;;2.43;;
14396;SDS011;50653;47.810;13.022;2023-03-23T00:25:52;1.93;;;1.83;;
14396;SDS011;50653;47.810;13.022;2023-03-23T00:28:21;2.83;;;2.63;;
14396;SDS011;50653;47.810;13.022;2023-03-23T00:30:56;3.50;;;2.57;;
14396;SDS011;50653;47.810;13.022;2023-03-23T00:33:27;3.07;;;2.87;;
14396;SDS011;50653;47.810;13.022;2023-03-23T00:35:55;2.67;;;2.47;;
14396;SDS011;50653;47.810;13.022;2023-03-23T00:38:22;3.00;;;2.30;;
14396;SDS011;50653;47.810;13.022;2023-03-23T00:40:49;2.63;;;2.53;;
14396;SDS011;50653;47.810;13.022;2023-03-23T00:43:16;3.10;;;2.90;;
14396;SDS011;50653;47.810;13.022;2023-03-23T00:45:43;2.47;;;2.27;;
14396;SDS011;50653;47.810;13.022;2023-03-23T00:48:27;2.80;;;2.67;;
14396;SDS011;50653;47.810;13.022;2023-03-23T00:50:53;2.37;;;2.17;;
14396;SDS011;50653;47.810;13.022;2023-03-23T00:53:20;2.30;;;2.13;;
14396;SDS011;50653;47.810;13.022;2023-03-23T00:55:46;3.30;;;3.10;;
14396;SDS011;50653;47.810;13.022;2023-03-23T00:58:13;3.77;;;2.43;;
14396;SDS011;50653;47.810;13.022;2023-03-23T01:00:40;2.57;;;2.47;;
14396;SDS011;50653;47.810;13.022;2023-03-23T01:03:07;3.00;;;2.60;;
14396;SDS011;50653;47.810;13.022;2023-03-23T01:05:37;2.40;;;2.30;;
14396;SDS011;50653;47.810;13.022;2023-03-23T01:08:04;2.07;;;1.97;;
14396;SDS011;50653;47.810;13.022;2023-03-23T01:10:31;2.70;;;2.50;;
14396;SDS011;50653;47.810;13.022;2023-03-23T01:13:03;2.10;;;2.00;;
14396;SDS011;50653;47.810;13.022;2023-03-23T01:15:30;2.30;;;2.20;;
14396;SDS011;50653;47.810;13.022;2023-03-23T01:17:56;3.10;;;2.90;;
14396;SDS011;50653;47.810;13.022;2023-03-23T01:20:23;2.93;;;2.83;;
14396;SDS011;50653;47.810;13.022;2023-03-23T01:22:49;4.23;;;2.67;;
14396;SDS011;50653;47.810;13.022;2023-03-23T01:25:15;2.50;;;2.30;;
14396;SDS011;50653;47.810;13.022;2023-03-23T01:27:41;2.70;;;2.43;;
14396;SDS011;50653;47.810;13.022;2023-03-23T01:30:08;2.07;;;1.87;;
14396;SDS011;50653;47.810;13.022;2023-03-23T01:32:37;2.57;;;2.43;;
14396;SDS011;50653;47.810;13.022;2023-03-23T01:35:03;2.23;;;2.10;;
14396;SDS011;50653;47.810;13.022;2023-03-23T01:37:30;2.97;;;2.37;;
14396;SDS011;50653;47.810;13.022;2023-03-23T01:39:56;2.97;;;2.20;;
14396;SDS011;50653;47.810;13.022;2023-03-23T01:42:23;2.47;;;2.27;;
14396;SDS011;50653;47.810;13.022;2023-03-23T01:47:20;3.60;;;2.63;;
14396;SDS011;50653;47.810;13.022;2023-03-23T01:49:49;3.67;;;2.00;;
14396;SDS011;50653;47.810;13.022;2023-03-23T01:52:20;2.07;;;1.87;;
14396;SDS011;50653;47.810;13.022;2023-03-23T01:54:54;2.70;;;2.47;;
14396;SDS011;50653;47.810;13.022;2023-03-23T01:57:22;2.43;;;2.23;;
14396;SDS011;50653;47.810;13.022;2023-03-23T01:59:52;5.53;;;2.33;;
14396;SDS011;50653;47.810;13.022;2023-03-23T02:02:26;2.70;;;2.50;;
14396;SDS011;50653;47.810;13.022;2023-03-23T02:04:57;2.10;;;1.90;;
14396;SDS011;50653;47.810;13.022;2023-03-23T02:07:29;4.40;;;2.03;;
14396;SDS011;50653;47.810;13.022;2023-03-23T02:09:57;5.60;;;2.27;;
14396;SDS011;50653;47.810;13.022;2023-03-23T02:12:25;2.60;;;2.50;;
14396;SDS011;50653;47.810;13.022;2023-03-23T02:14:52;1.80;;;1.70;;
14396;SDS011;50653;47.810;13.022;2023-03-23T02:17:22;4.10;;;2.20;;
14396;SDS011;50653;47.810;13.022;2023-03-23T02:28:55;4.23;;;1.67;;
14396;SDS011;50653;47.810;13.022;2023-03-23T02:34:18;2.73;;;1.40;;
14396;SDS011;50653;47.810;13.022;2023-03-23T02:39:30;2.43;;;2.23;;
14396;SDS011;50653;47.810;13.022;2023-03-23T02:42:05;2.20;;;2.10;;
14396;SDS011;50653;47.810;13.022;2023-03-23T02:44:33;2.20;;;2.10;;
14396;SDS011;50653;47.810;13.022;2023-03-23T02:47:03;2.10;;;2.00;;
14396;SDS011;50653;47.810;13.022;2023-03-23T02:49:33;2.83;;;1.60;;
14396;SDS011;50653;47.810;13.022;2023-03-23T02:52:04;5.93;;;1.77;;
14396;SDS011;50653;47.810;13.022;2023-03-23T02:54:32;1.50;;;1.40;;
14396;SDS011;50653;47.810;13.022;2023-03-23T02:57:00;2.23;;;1.93;;
14396;SDS011;50653;47.810;13.022;2023-03-23T02:59:29;1.53;;;1.43;;
14396;SDS011;50653;47.810;13.022;2023-03-23T03:01:58;2.13;;;2.03;;
14396;SDS011;50653;47.810;13.022;2023-03-23T03:04:29;3.40;;;2.07;;
14396;SDS011;50653;47.810;13.022;2023-03-23T03:12:31;1.73;;;1.63;;
14396;SDS011;50653;47.810;13.022;2023-03-23T03:17:32;1.67;;;1.57;;
14396;SDS011;50653;47.810;13.022;2023-03-23T03:20:05;3.40;;;1.67;;
14396;SDS011;50653;47.810;13.022;2023-03-23T03:22:38;2.37;;;2.27;;
14396;SDS011;50653;47.810;13.022;2023-03-23T03:25:07;3.73;;;1.83;;
14396;SDS011;50653;47.810;13.022;2023-03-23T03:27:38;1.53;;;1.43;;
14396;SDS011;50653;47.810;13.022;2023-03-23T03:30:12;2.70;;;1.70;;
14396;SDS011;50653;47.810;13.022;2023-03-23T03:32:44;1.60;;;1.50;;
14396;SDS011;50653;47.810;13.022;2023-03-23T03:35:14;1.93;;;1.83;;
14396;SDS011;50653;47.810;13.022;2023-03-23T03:37:40;1.63;;;1.53;;
14396;SDS011;50653;47.810;13.022;2023-03-23T03:40:08;2.10;;;2.00;;
14396;SDS011;50653;47.810;13.022;2023-03-23T03:42:39;5.03;;;1.57;;
14396;SDS011;50653;47.810;13.022;2023-03-23T03:45:08;1.97;;;1.87;;
14396;SDS011;50653;47.810;13.022;2023-03-23T03:47:35;1.70;;;1.60;;
14396;SDS011;50653;47.810;13.022;2023-03-23T03:50:02;1.83;;;1.73;;
14396;SDS011;50653;47.810;13.022;2023-03-23T03:52:28;2.40;;;2.20;;
14396;SDS011;50653;47.810;13.022;2023-03-23T03:54:54;6.60;;;1.90;;
14396;SDS011;50653;47.810;13.022;2023-03-23T03:57:21;2.37;;;2.17;;
14396;SDS011;50653;47.810;13.022;2023-03-23T04:00:05;2.23;;;1.30;;
14396;SDS011;50653;47.810;13.022;2023-03-23T04:02:45;1.50;;;1.37;;
14396;SDS011;50653;47.810;13.022;2023-03-23T04:05:17;1.47;;;1.37;;
14396;SDS011;50653;47.810;13.022;2023-03-23T04:07:46;1.97;;;1.77;;
14396;SDS011;50653;47.810;13.022;2023-03-23T04:10:18;2.13;;;2.03;;
14396;SDS011;50653;47.810;13.022;2023-03-23T04:12:48;1.67;;;1.57;;
14396;SDS011;50653;47.810;13.022;2023-03-23T04:15:17;2.13;;;2.00;;
14396;SDS011;50653;47.810;13.022;2023-03-23T04:17:44;2.93;;;1.77;;
14396;SDS011;50653;47.810;13.022;2023-03-23T04:20:10;1.30;;;1.20;;
14396;SDS011;50653;47.810;13.022;2023-03-23T04:22:46;4.50;;;1.20;;
14396;SDS011;50653;47.810;13.022;2023-03-23T04:25:18;2.10;;;2.00;;
14396;SDS011;50653;47.810;13.022;2023-03-23T04:27:50;1.27;;;1.17;;
14396;SDS011;50653;47.810;13.022;2023-03-23T04:30:28;3.07;;;2.07;;
14396;SDS011;50653;47.810;13.022;2023-03-23T04:33:09;4.93;;;2.57;;
14396;SDS011;50653;47.810;13.022;2023-03-23T04:35:39;1.70;;;1.60;;
14396;SDS011;50653;47.810;13.022;2023-03-23T04:38:14;4.50;;;1.93;;
14396;SDS011;50653;47.810;13.022;2023-03-23T04:40:44;2.63;;;1.93;;
14396;SDS011;50653;47.810;13.022;2023-03-23T04:43:19;4.67;;;1.67;;
14396;SDS011;50653;47.810;13.022;2023-03-23T04:46:09;2.40;;;2.20;;
14396;SDS011;50653;47.810;13.022;2023-03-23T04:48:35;4.90;;;1.80;;
14396;SDS011;50653;47.810;13.022;2023-03-23T04:51:12;6.37;;;2.50;;
14396;SDS011;50653;47.810;13.022;2023-03-23T04:53:40;8.53;;;1.70;;
14396;SDS011;50653;47.810;13.022;2023-03-23T04:56:06;2.70;;;2.50;;
14396;SDS011;50653;47.810;13.022;2023-03-23T04:58:38;1.77;;;1.67;;
14396;SDS011;50653;47.810;13.022;2023-03-23T05:01:16;3.03;;;2.30;;
14396;SDS011;50653;47.810;13.022;2023-03-23T05:03:51;6.03;;;4.70;;
14396;SDS011;50653;47.810;13.022;2023-03-23T05:06:17;2.50;;;2.10;;
14396;SDS011;50653;47.810;13.022;2023-03-23T05:08:44;5.33;;;1.90;;
14396;SDS011;50653;47.810;13.022;2023-03-23T05:11:10;2.80;;;2.63;;
14396;SDS011;50653;47.810;13.022;2023-03-23T05:13:40;11.70;;;3.13;;
14396;SDS011;50653;47.810;13.022;2023-03-23T05:16:07;4.50;;;3.00;;
14396;SDS011;50653;47.810;13.022;2023-03-23T05:18:34;8.10;;;2.10;;
14396;SDS011;50653;47.810;13.022;2023-03-23T05:21:03;1.67;;;1.57;;
14396;SDS011;50653;47.810;13.022;2023-03-23T05:23:34;2.40;;;2.30;;
14396;SDS011;50653;47.810;13.022;2023-03-23T05:26:09;2.93;;;2.77;;
14396;SDS011;50653;47.810;13.022;2023-03-23T05:28:35;3.47;;;2.00;;
14396;SDS011;50653;47.810;13.022;2023-03-23T05:31:19;1.60;;;1.50;;
14396;SDS011;50653;47.810;13.022;2023-03-23T05:33:46;7.27;;;2.60;;
14396;SDS011;50653;47.810;13.022;2023-03-23T05:36:20;2.37;;;2.20;;
14396;SDS011;50653;47.810;13.022;2023-03-23T05:39:13;2.00;;;1.90;;
14396;SDS011;50653;47.810;13.022;2023-03-23T05:41:59;1.93;;;1.53;;
14396;SDS011;50653;47.810;13.022;2023-03-23T05:44:34;2.60;;;1.93;;
14396;SDS011;50653;47.810;13.022;2023-03-23T05:47:00;1.70;;;1.47;;
14396;SDS011;50653;47.810;13.022;2023-03-23T05:49:26;2.83;;;1.90;;
14396;SDS011;50653;47.810;13.022;2023-03-23T05:51:53;2.20;;;2.10;;
14396;SDS011;50653;47.810;13.022;2023-03-23T05:54:19;3.00;;;2.10;;
14396;SDS011;50653;47.810;13.022;2023-03-23T05:56:47;2.63;;;2.43;;
14396;SDS011;50653;47.810;13.022;2023-03-23T05:59:32;5.10;;;2.93;;
14396;SDS011;50653;47.810;13.022;2023-03-23T06:01:59;3.70;;;1.70;;
14396;SDS011;50653;47.810;13.022;2023-03-23T06:04:25;2.43;;;1.93;;
14396;SDS011;50653;47.810;13.022;2023-03-23T06:07:05;3.23;;;1.60;;
14396;SDS011;50653;47.810;13.022;2023-03-23T06:09:30;3.00;;;2.53;;
14396;SDS011;50653;47.810;13.022;2023-03-23T06:12:15;2.63;;;2.33;;
14396;SDS011;50653;47.810;13.022;2023-03-23T06:14:55;2.07;;;1.87;;
14396;SDS011;50653;47.810;13.022;2023-03-23T06:17:30;4.73;;;1.57;;
14396;SDS011;50653;47.810;13.022;2023-03-23T06:19:56;2.73;;;2.03;;
14396;SDS011;50653;47.810;13.022;2023-03-23T06:22:22;3.07;;;2.70;;
14396;SDS011;50653;47.810;13.022;2023-03-23T06:24:54;1.80;;;1.70;;
14396;SDS011;50653;47.810;13.022;2023-03-23T06:27:26;2.17;;;2.07;;
14396;SDS011;50653;47.810;13.022;2023-03-23T06:29:54;1.53;;;1.43;;
14396;SDS011;50653;47.810;13.022;2023-03-23T06:32:22;1.87;;;1.77;;
14396;SDS011;50653;47.810;13.022;2023-03-23T06:34:49;2.07;;;1.97;;
14396;SDS011;50653;47.810;13.022;2023-03-23T06:37:40;3.63;;;2.23;;
14396;SDS011;50653;47.810;13.022;2023-03-23T06:40:17;1.80;;;1.70;;
14396;SDS011;50653;47.810;13.022;2023-03-23T06:42:49;3.10;;;1.83;;
14396;SDS011;50653;47.810;13.022;2023-03-23T06:45:53;3.50;;;1.50;;
14396;SDS011;50653;47.810;13.022;2023-03-23T06:48:48;3.70;;;1.30;;
14396;SDS011;50653;47.810;13.022;2023-03-23T06:51:24;1.87;;;1.77;;
14396;SDS011;50653;47.810;13.022;2023-03-23T06:53:53;2.00;;;1.90;;
14396;SDS011;50653;47.810;13.022;2023-03-23T06:56:24;1.53;;;1.43;;
14396;SDS011;50653;47.810;13.022;2023-03-23T06:58:50;2.40;;;2.30;;
14396;SDS011;50653;47.810;13.022;2023-03-23T07:01:22;1.87;;;1.77;;
14396;SDS011;50653;47.810;13.022;2023-03-23T07:03:59;4.53;;;1.90;;
14396;SDS011;50653;47.810;13.022;2023-03-23T07:06:35;1.83;;;1.73;;
14396;SDS011;50653;47.810;13.022;2023-03-23T07:09:04;6.13;;;2.20;;
14396;SDS011;50653;47.810;13.022;2023-03-23T07:11:34;3.00;;;2.03;;
14396;SDS011;50653;47.810;13.022;2023-03-23T07:14:07;2.13;;;2.03;;
14396;SDS011;50653;47.810;13.022;2023-03-23T07:16:34;3.83;;;2.03;;
14396;SDS011;50653;47.810;13.022;2023-03-23T07:19:00;2.53;;;1.63;;
14396;SDS011;50653;47.810;13.022;2023-03-23T07:21:28;4.30;;;2.50;;
14396;SDS011;50653;47.810;13.022;2023-03-23T07:23:55;3.40;;;1.70;;
14396;SDS011;50653;47.810;13.022;2023-03-23T07:26:49;1.93;;;1.60;;
14396;SDS011;50653;47.810;13.022;2023-03-23T07:29:17;1.70;;;1.50;;
14396;SDS011;50653;47.810;13.022;2023-03-23T07:31:48;2.10;;;1.87;;
14396;SDS011;50653;47.810;13.022;2023-03-23T07:34:25;2.53;;;2.30;;
14396;SDS011;50653;47.810;13.022;2023-03-23T07:37:09;3.47;;;2.20;;
14396;SDS011;50653;47.810;13.022;2023-03-23T07:39:41;1.80;;;1.70;;
14396;SDS011;50653;47.810;13.022;2023-03-23T07:42:15;3.20;;;2.00;;
14396;SDS011;50653;47.810;13.022;2023-03-23T07:44:47;1.77;;;1.67;;
14396;SDS011;50653;47.810;13.022;2023-03-23T07:47:18;1.87;;;1.77;;
14396;SDS011;50653;47.810;13.022;2023-03-23T07:49:48;2.50;;;1.63;;
14396;SDS011;50653;47.810;13.022;2023-03-23T07:52:43;3.93;;;1.90;;
14396;SDS011;50653;47.810;13.022;2023-03-23T07:55:12;3.77;;;2.40;;
14396;SDS011;50653;47.810;13.022;2023-03-23T07:58:11;2.13;;;2.03;;
14396;SDS011;50653;47.810;13.022;2023-03-23T08:00:43;2.60;;;2.40;;
14396;SDS011;50653;47.810;13.022;2023-03-23T08:03:13;5.50;;;2.40;;
14396;SDS011;50653;47.810;13.022;2023-03-23T08:05:53;4.20;;;2.00;;
14396;SDS011;50653;47.810;13.022;2023-03-23T08:08:48;2.17;;;2.07;;
14396;SDS011;50653;47.810;13.022;2023-03-23T08:11:57;2.63;;;2.53;;
14396;SDS011;50653;47.810;13.022;2023-03-23T08:14:43;1.93;;;1.83;;
14396;SDS011;50653;47.810;13.022;2023-03-23T08:17:31;1.93;;;1.53;;
14396;SDS011;50653;47.810;13.022;2023-03-23T08:20:38;5.50;;;2.23;;
14396;SDS011;50653;47.810;13.022;2023-03-23T08:23:27;3.87;;;3.30;;
14396;SDS011;50653;47.810;13.022;2023-03-23T08:26:13;3.23;;;2.90;;
14396;SDS011;50653;47.810;13.022;2023-03-23T08:29:08;2.10;;;2.00;;
14396;SDS011;50653;47.810;13.022;2023-03-23T08:32:04;2.83;;;2.53;;
14396;SDS011;50653;47.810;13.022;2023-03-23T08:34:46;4.20;;;1.97;;
14396;SDS011;50653;47.810;13.022;2023-03-23T08:37:41;3.53;;;2.27;;
14396;SDS011;50653;47.810;13.022;2023-03-23T08:40:23;4.53;;;2.50;;
14396;SDS011;50653;47.810;13.022;2023-03-23T08:43:34;3.60;;;2.60;;
14396;SDS011;50653;47.810;13.022;2023-03-23T08:46:42;1.83;;;1.73;;
14396;SDS011;50653;47.810;13.022;2023-03-23T08:49:49;7.70;;;2.00;;
14396;SDS011;50653;47.810;13.022;2023-03-23T08:52:37;2.23;;;2.03;;
14396;SDS011;50653;47.810;13.022;2023-03-23T08:55:47;2.10;;;1.90;;
14396;SDS011;50653;47.810;13.022;2023-03-23T08:58:36;1.63;;;1.53;;
14396;SDS011;50653;47.810;13.022;2023-03-23T09:01:50;1.83;;;1.73;;
14396;SDS011;50653;47.810;13.022;2023-03-23T09:04:33;2.27;;;2.07;;
14396;SDS011;50653;47.810;13.022;2023-03-23T09:07:39;1.90;;;1.80;;
14396;SDS011;50653;47.810;13.022;2023-03-23T09:10:10;5.13;;;2.07;;
14396;SDS011;50653;47.810;13.022;2023-03-23T09:12:45;2.47;;;1.73;;
14396;SDS011;50653;47.810;13.022;2023-03-23T09:15:13;1.90;;;1.80;;
14396;SDS011;50653;47.810;13.022;2023-03-23T09:17:44;2.47;;;1.77;;
14396;SDS011;50653;47.810;13.022;2023-03-23T09:20:28;2.17;;;2.03;;
14396;SDS011;50653;47.810;13.022;2023-03-23T09:23:10;2.43;;;2.33;;
14396;SDS011;50653;47.810;13.022;2023-03-23T09:25:43;2.50;;;2.10;;
14396;SDS011;50653;47.810;13.022;2023-03-23T09:28:12;2.80;;;1.53;;
14396;SDS011;50653;47.810;13.022;2023-03-23T09:30:51;2.60;;;1.90;;
14396;SDS011;50653;47.810;13.022;2023-03-23T09:33:24;2.50;;;1.60;;
14396;SDS011;50653;47.810;13.022;2023-03-23T09:36:05;3.53;;;2.27;;
14396;SDS011;50653;47.810;13.022;2023-03-23T09:38:35;7.40;;;2.20;;
14396;SDS011;50653;47.810;13.022;2023-03-23T09:47:17;1.80;;;1.70;;
14396;SDS011;50653;47.810;13.022;2023-03-23T09:50:14;2.10;;;2.00;;
14396;SDS011;50653;47.810;13.022;2023-03-23T09:55:48;3.37;;;2.17;;
14396;SDS011;50653;47.810;13.022;2023-03-23T09:58:24;1.80;;;1.70;;
14396;SDS011;50653;47.810;13.022;2023-03-23T10:01:10;2.80;;;1.73;;
14396;SDS011;50653;47.810;13.022;2023-03-23T10:04:03;5.73;;;2.10;;
14396;SDS011;50653;47.810;13.022;2023-03-23T10:06:38;2.17;;;1.90;;
14396;SDS011;50653;47.810;13.022;2023-03-23T10:09:08;4.40;;;2.10;;
14396;SDS011;50653;47.810;13.022;2023-03-23T10:14:49;2.40;;;1.70;;
14396;SDS011;50653;47.810;13.022;2023-03-23T10:17:33;1.43;;;1.33;;
14396;SDS011;50653;47.810;13.022;2023-03-23T10:22:53;2.00;;;1.80;;
14396;SDS011;50653;47.810;13.022;2023-03-23T10:25:41;3.67;;;2.00;;
14396;SDS011;50653;47.810;13.022;2023-03-23T10:28:20;2.37;;;1.60;;
14396;SDS011;50653;47.810;13.022;2023-03-23T10:30:51;1.90;;;1.80;;
14396;SDS011;50653;47.810;13.022;2023-03-23T10:33:43;2.60;;;1.80;;
14396;SDS011;50653;47.810;13.022;2023-03-23T10:36:17;2.03;;;1.80;;
14396;SDS011;50653;47.810;13.022;2023-03-23T10:38:55;5.20;;;1.70;;
14396;SDS011;50653;47.810;13.022;2023-03-23T10:41:33;1.40;;;1.30;;
14396;SDS011;50653;47.810;13.022;2023-03-23T10:43:59;1.47;;;1.37;;
14396;SDS011;50653;47.810;13.022;2023-03-23T10:46:47;3.37;;;3.07;;
14396;SDS011;50653;47.810;13.022;2023-03-23T10:49:26;1.50;;;1.40;;
14396;SDS011;50653;47.810;13.022;2023-03-23T10:52:04;1.30;;;1.07;;
14396;SDS011;50653;47.810;13.022;2023-03-23T10:54:33;2.83;;;1.50;;
14396;SDS011;50653;47.810;13.022;2023-03-23T10:57:17;2.50;;;1.40;;
14396;SDS011;50653;47.810;13.022;2023-03-23T11:00:04;1.00;;;0.90;;
14396;SDS011;50653;47.810;13.022;2023-03-23T11:02:42;1.67;;;1.37;;
14396;SDS011;50653;47.810;13.022;2023-03-23T11:05:42;2.30;;;2.20;;
14396;SDS011;50653;47.810;13.022;2023-03-23T11:08:20;1.83;;;1.73;;
14396;SDS011;50653;47.810;13.022;2023-03-23T11:13:29;1.50;;;1.40;;
14396;SDS011;50653;47.810;13.022;2023-03-23T11:16:07;1.60;;;1.50;;
14396;SDS011;50653;47.810;13.022;2023-03-23T11:18:40;1.53;;;1.43;;
14396;SDS011;50653;47.810;13.022;2023-03-23T11:21:11;4.20;;;2.50;;
14396;SDS011;50653;47.810;13.022;2023-03-23T11:23:39;1.63;;;1.37;;
14396;SDS011;50653;47.810;13.022;2023-03-23T11:26:23;1.40;;;1.30;;
14396;SDS011;50653;47.810;13.022;2023-03-23T11:31:36;3.10;;;2.90;;
14396;SDS011;50653;47.810;13.022;2023-03-23T11:36:42;2.63;;;1.43;;
14396;SDS011;50653;47.810;13.022;2023-03-23T11:39:21;1.53;;;1.43;;
14396;SDS011;50653;47.810;13.022;2023-03-23T11:41:55;2.43;;;1.80;;
14396;SDS011;50653;47.810;13.022;2023-03-23T11:44:23;2.40;;;2.23;;
14396;SDS011;50653;47.810;13.022;2023-03-23T11:57:01;2.43;;;1.43;;
14396;SDS011;50653;47.810;13.022;2023-03-23T11:59:34;8.47;;;1.87;;
14396;SDS011;50653;47.810;13.022;2023-03-23T12:05:27;3.23;;;1.43;;
14396;SDS011;50653;47.810;13.022;2023-03-23T12:11:15;3.20;;;2.07;;
14396;SDS011;50653;47.810;13.022;2023-03-23T12:14:09;2.70;;;1.80;;
14396;SDS011;50653;47.810;13.022;2023-03-23T12:17:12;7.60;;;3.93;;
14396;SDS011;50653;47.810;13.022;2023-03-23T12:40:04;1.40;;;1.23;;
14396;SDS011;50653;47.810;13.022;2023-03-23T12:43:02;2.33;;;1.30;;
14396;SDS011;50653;47.810;13.022;2023-03-23T12:45:49;2.23;;;2.00;;
14396;SDS011;50653;47.810;13.022;2023-03-23T12:53:04;1.30;;;1.20;;
14396;SDS011;50653;47.810;13.022;2023-03-23T12:55:52;1.37;;;1.23;;
14396;SDS011;50653;47.810;13.022;2023-03-23T12:58:38;1.77;;;1.67;;
14396;SDS011;50653;47.810;13.022;2023-03-23T13:01:19;1.60;;;1.50;;
14396;SDS011;50653;47.810;13.022;2023-03-23T13:03:51;1.47;;;1.10;;
14396;SDS011;50653;47.810;13.022;2023-03-23T13:09:04;2.37;;;1.60;;
14396;SDS011;50653;47.810;13.022;2023-03-23T13:11:49;6.40;;;1.50;;
14396;SDS011;50653;47.810;13.022;2023-03-23T13:22:56;3.03;;;2.00;;
14396;SDS011;50653;47.810;13.022;2023-03-23T13:33:12;2.80;;;2.10;;
14396;SDS011;50653;47.810;13.022;2023-03-23T13:35:39;4.60;;;2.90;;
14396;SDS011;50653;47.810;13.022;2023-03-23T13:40:59;1.33;;;1.23;;
14396;SDS011;50653;47.810;13.022;2023-03-23T13:43:33;2.63;;;1.77;;
14396;SDS011;50653;47.810;13.022;2023-03-23T13:46:23;1.77;;;1.67;;
14396;SDS011;50653;47.810;13.022;2023-03-23T13:51:47;1.60;;;1.50;;
14396;SDS011;50653;47.810;13.022;2023-03-23T13:54:24;4.63;;;2.00;;
14396;SDS011;50653;47.810;13.022;2023-03-23T13:56:56;2.63;;;1.93;;
14396;SDS011;50653;47.810;13.022;2023-03-23T13:59:46;2.00;;;1.73;;
14396;SDS011;50653;47.810;13.022;2023-03-23T14:02:30;2.43;;;1.47;;
14396;SDS011;50653;47.810;13.022;2023-03-23T14:07:57;1.80;;;1.70;;
14396;SDS011;50653;47.810;13.022;2023-03-23T14:10:31;1.50;;;1.40;;
14396;SDS011;50653;47.810;13.022;2023-03-23T14:13:04;5.80;;;1.60;;
14396;SDS011;50653;47.810;13.022;2023-03-23T14:15:42;2.67;;;2.30;;
14396;SDS011;50653;47.810;13.022;2023-03-23T14:18:18;7.07;;;2.20;;
14396;SDS011;50653;47.810;13.022;2023-03-23T14:20:46;2.77;;;2.57;;
14396;SDS011;50653;47.810;13.022;2023-03-23T14:23:16;3.60;;;1.73;;
14396;SDS011;50653;47.810;13.022;2023-03-23T14:25:44;1.80;;;1.70;;
14396;SDS011;50653;47.810;13.022;2023-03-23T14:28:20;3.33;;;2.37;;
14396;SDS011;50653;47.810;13.022;2023-03-23T14:30:47;2.63;;;1.70;;
14396;SDS011;50653;47.810;13.022;2023-03-23T14:33:18;2.43;;;1.70;;
14396;SDS011;50653;47.810;13.022;2023-03-23T14:35:45;4.63;;;2.00;;
14396;SDS011;50653;47.810;13.022;2023-03-23T14:38:17;1.73;;;1.63;;
14396;SDS011;50653;47.810;13.022;2023-03-23T14:40:48;2.40;;;2.20;;
14396;SDS011;50653;47.810;13.022;2023-03-23T14:43:20;3.60;;;1.77;;
14396;SDS011;50653;47.810;13.022;2023-03-23T14:45:57;3.30;;;3.00;;
14396;SDS011;50653;47.810;13.022;2023-03-23T14:48:26;2.40;;;2.10;;
14396;SDS011;50653;47.810;13.022;2023-03-23T14:50:56;2.60;;;2.40;;
14396;SDS011;50653;47.810;13.022;2023-03-23T14:53:25;4.23;;;2.40;;
14396;SDS011;50653;47.810;13.022;2023-03-23T14:55:59;3.07;;;2.87;;
14396;SDS011;50653;47.810;13.022;2023-03-23T14:58:28;5.27;;;3.37;;
14396;SDS011;50653;47.810;13.022;2023-03-23T15:00:57;3.07;;;2.77;;
14396;SDS011;50653;47.810;13.022;2023-03-23T15:03:26;2.90;;;2.30;;
14396;SDS011;50653;47.810;13.022;2023-03-23T15:05:58;2.20;;;2.10;;
14396;SDS011;50653;47.810;13.022;2023-03-23T15:08:29;2.07;;;1.90;;
14396;SDS011;50653;47.810;13.022;2023-03-23T15:11:05;2.40;;;2.20;;
14396;SDS011;50653;47.810;13.022;2023-03-23T15:13:36;2.40;;;2.20;;
14396;SDS011;50653;47.810;13.022;2023-03-23T15:16:29;2.37;;;2.17;;
14396;SDS011;50653;47.810;13.022;2023-03-23T15:18:56;5.53;;;2.80;;
14396;SDS011;50653;47.810;13.022;2023-03-23T15:23:58;2.63;;;2.43;;
14396;SDS011;50653;47.810;13.022;2023-03-23T15:26:32;2.67;;;2.43;;
14396;SDS011;50653;47.810;13.022;2023-03-23T15:31:38;2.00;;;1.90;;
14396;SDS011;50653;47.810;13.022;2023-03-23T15:34:11;2.07;;;1.97;;
14396;SDS011;50653;47.810;13.022;2023-03-23T15:36:45;2.80;;;2.60;;
14396;SDS011;50653;47.810;13.022;2023-03-23T15:39:11;2.50;;;2.30;;
14396;SDS011;50653;47.810;13.022;2023-03-23T15:41:45;2.93;;;2.53;;
14396;SDS011;50653;47.810;13.022;2023-03-23T15:44:20;2.13;;;2.03;;
14396;SDS011;50653;47.810;13.022;2023-03-23T15:47:17;3.17;;;2.90;;
14396;SDS011;50653;47.810;13.022;2023-03-23T15:49:45;2.70;;;2.50;;
14396;SDS011;50653;47.810;13.022;2023-03-23T15:52:13;6.40;;;2.90;;
14396;SDS011;50653;47.810;13.022;2023-03-23T15:54:46;4.20;;;3.87;;
14396;SDS011;50653;47.810;13.022;2023-03-23T15:57:13;3.60;;;3.30;;
14396;SDS011;50653;47.810;13.022;2023-03-23T15:59:38;6.10;;;3.17;;
14396;SDS011;50653;47.810;13.022;2023-03-23T16:02:04;3.50;;;3.30;;
14396;SDS011;50653;47.810;13.022;2023-03-23T16:04:30;3.70;;;3.23;;
14396;SDS011;50653;47.810;13.022;2023-03-23T16:06:57;5.90;;;4.43;;
14396;SDS011;50653;47.810;13.022;2023-03-23T16:09:24;5.87;;;4.60;;
14396;SDS011;50653;47.810;13.022;2023-03-23T16:11:50;7.80;;;4.77;;
14396;SDS011;50653;47.810;13.022;2023-03-23T16:14:16;6.93;;;4.03;;
14396;SDS011;50653;47.810;13.022;2023-03-23T16:16:45;4.63;;;4.10;;
14396;SDS011;50653;47.810;13.022;2023-03-23T16:19:13;6.33;;;3.30;;
14396;SDS011;50653;47.810;13.022;2023-03-23T16:21:41;3.47;;;3.27;;
14396;SDS011;50653;47.810;13.022;2023-03-23T16:24:07;3.60;;;3.30;;
14396;SDS011;50653;47.810;13.022;2023-03-23T16:26:33;7.40;;;4.40;;
14396;SDS011;50653;47.810;13.022;2023-03-23T16:28:59;4.80;;;4.30;;
14396;SDS011;50653;47.810;13.022;2023-03-23T16:31:27;3.90;;;3.27;;
14396;SDS011;50653;47.810;13.022;2023-03-23T16:33:53;7.60;;;3.63;;
14396;SDS011;50653;47.810;13.022;2023-03-23T16:36:19;4.30;;;3.90;;
14396;SDS011;50653;47.810;13.022;2023-03-23T16:38:45;6.03;;;4.40;;
14396;SDS011;50653;47.810;13.022;2023-03-23T16:41:11;4.60;;;4.30;;
14396;SDS011;50653;47.810;13.022;2023-03-23T16:43:36;4.73;;;4.30;;
14396;SDS011;50653;47.810;13.022;2023-03-23T16:46:02;5.90;;;4.27;;
14396;SDS011;50653;47.810;13.022;2023-03-23T16:48:29;7.03;;;3.80;;
14396;SDS011;50653;47.810;13.022;2023-03-23T16:50:54;4.80;;;4.27;;
14396;SDS011;50653;47.810;13.022;2023-03-23T16:53:20;4.90;;;4.30;;
14396;SDS011;50653;47.810;13.022;2023-03-23T16:55:47;5.07;;;4.50;;
14396;SDS011;50653;47.810;13.022;2023-03-23T16:58:15;5.17;;;4.70;;
14396;SDS011;50653;47.810;13.022;2023-03-23T17:00:41;4.10;;;3.80;;
14396;SDS011;50653;47.810;13.022;2023-03-23T17:03:08;9.87;;;4.20;;
14396;SDS011;50653;47.810;13.022;2023-03-23T17:05:35;4.63;;;4.23;;
14396;SDS011;50653;47.810;13.022;2023-03-23T17:08:02;5.40;;;4.57;;
14396;SDS011;50653;47.810;13.022;2023-03-23T17:10:28;9.13;;;4.47;;
14396;SDS011;50653;47.810;13.022;2023-03-23T17:12:55;8.33;;;4.90;;
14396;SDS011;50653;47.810;13.022;2023-03-23T17:15:21;7.67;;;4.87;;